Accueil
METAR-TAF:

METAR-TAF

Aéroports :

Aéroport de Nador-Al Aroui

Nador, Maroc

latitude: 34-59-20N, longitude: 003-01-42W, altitude: 175 m

Observation

Le bulletin a été fait il y a 1 heure et 14 minutes, à 19:00 UTC
Vent 7 kt de est/nord-est
Température 15°C
Humidité 77%
Pression 1022 hPa
Visibilité 10 km ou plus
Nuages épars à une hauteur de 2000 ft

METAR: GMMW 061900Z 06007KT 9999 SCT020 15/11 Q1022 NOSIG

Heure: 21:14 (20:14 UTC)

Prévision

Le bulletin a été fait il y a 3 heures et 14 minutes, à 17:00 UTC
Prévision valable du 06 à 18 UTC au 07 à 24 UTC
Vent 11 kt de est/nord-est
Visibilité 10 km ou plus
Nuages épars à une hauteur de 2000 ft
Nuages épars à une hauteur de 3000 ft
Probabilité 40%
du 07 à 00 UTC au 07 à 06 UTC
Visibilité: 2000 m
Ciel couvert à une hauteur de 1000 ft
brume

TAF: GMMW 061700Z 0618/0724 07011KT 9999 SCT020 SCT030 PROB40 0700/0706 2000 BR OVC010

Observations et prévisions météorologiques de plus de 4000 aéroports (messages METAR et TAF).

Les stations disponibles sont représentées par des disques jaunes et rouges sur la carte.

Passer la souris dessus pour voir le nom de la station.

Cliquer dessus pour voir les observations et prévisions météorologiques.

Pour changer de carte: cliquez sur les boutons verts avec une croix noire pour zoomer, sur le bouton vert avec un tiret pour effectuer un zoom arrière, ou sur les flèches vertes pour les cartes adjacentes.


METAR-TAF: